Time;durP1;ratioP1;P1;durP2;ratioP2;P2;SDS_P1;SDS_P2;PMS_P1;PMS_P2;Temp;Humidity;BMP_temperature;BMP_pressure;BME280_temperature;BME280_humidity;BME280_pressure;Samples;Min_cycle;Max_cycle;Signal;HPM_P1;HPM_P2
2023/10/15 00:02:03;;;;;;;4.63;1.13;;;;;;;13.20;64.19;100190.06;6094777;23;20017;-86
2023/10/15 00:04:30;;;;;;;3.97;1.60;;;;;;;13.13;63.94;100192.47;6118805;23;20516;-86
2023/10/15 00:06:57;;;;;;;5.72;1.45;;;;;;;13.12;63.86;100190.78;6096015;23;20030;-85
2023/10/15 00:09:24;;;;;;;4.05;1.52;;;;;;;13.10;63.83;100192.78;6119441;23;20079;-86
2023/10/15 00:11:51;;;;;;;3.72;1.63;;;;;;;13.05;63.99;100187.00;6095981;23;20343;-86
2023/10/15 00:14:18;;;;;;;5.72;2.00;;;;;;;13.00;63.97;100186.56;6119703;23;20021;-86
2023/10/15 00:16:45;;;;;;;6.57;1.98;;;;;;;12.92;63.95;100187.28;6095568;23;20033;-85
2023/10/15 00:19:12;;;;;;;2.75;1.15;;;;;;;12.99;64.05;100188.41;6119859;23;20382;-86
2023/10/15 00:21:39;;;;;;;5.10;1.60;;;;;;;12.95;63.84;100195.03;6120169;23;20018;-85
2023/10/15 00:24:09;;;;;;;5.15;1.40;;;;;;;12.94;63.51;100185.31;6096278;23;20033;-85
2023/10/15 00:26:38;;;;;;;4.38;1.40;;;;;;;12.91;63.28;100185.63;6097377;23;20041;-85
2023/10/15 00:29:08;;;;;;;2.95;1.48;;;;;;;12.90;63.10;100185.75;6119333;23;20454;-85
2023/10/15 00:31:34;;;;;;;3.88;1.60;;;;;;;12.89;63.01;100182.25;6121878;23;20025;-86
2023/10/15 00:34:01;;;;;;;5.57;1.60;;;;;;;12.81;63.06;100180.28;6145122;23;20033;-85
2023/10/15 00:36:28;;;;;;;3.35;1.40;;;;;;;12.82;63.33;100183.78;6094805;23;20048;-86
2023/10/15 00:38:55;;;;;;;5.47;1.40;;;;;;;12.79;63.15;100182.25;6119973;23;20057;-86
2023/10/15 00:41:22;;;;;;;3.20;1.75;;;;;;;12.67;63.44;100183.41;6095628;23;20021;-86
2023/10/15 00:43:56;;;;;;;2.85;1.42;;;;;;;12.67;63.81;100177.22;6097249;23;20021;-86
2023/10/15 00:46:26;;;;;;;3.47;1.60;;;;;;;12.67;63.79;100180.75;6121373;23;20017;-85
2023/10/15 00:48:56;;;;;;;7.35;1.73;;;;;;;12.63;63.88;100175.84;6145622;23;20019;-85
2023/10/15 00:51:24;;;;;;;5.53;1.77;;;;;;;12.70;63.73;100183.13;6122429;23;20021;-84
2023/10/15 00:53:54;;;;;;;4.88;1.65;;;;;;;12.71;63.92;100182.13;6145933;23;20374;-85
2023/10/15 00:56:26;;;;;;;5.50;1.65;;;;;;;12.64;64.01;100181.00;6145153;23;20032;-85
2023/10/15 01:01:26;;;;;;;5.00;1.60;;;;;;;12.77;63.60;100178.06;6121350;23;20034;-85
2023/10/15 01:03:58;;;;;;;5.57;1.55;;;;;;;12.66;63.28;100172.88;6121417;23;20023;-85
2023/10/15 01:09:17;;;;;;;5.35;1.50;;;;;;;12.74;63.51;100168.50;6145249;23;20018;-86
2023/10/15 01:11:50;;;;;;;5.97;1.52;;;;;;;12.59;64.04;100176.13;6120622;23;20044;-85
2023/10/15 01:14:31;;;;;;;4.50;1.63;;;;;;;12.60;63.95;100171.63;6143641;23;20088;-85
2023/10/15 01:16:59;;;;;;;3.35;1.65;;;;;;;12.53;63.97;100174.00;6122457;23;20028;-85
2023/10/15 01:19:33;;;;;;;6.30;1.70;;;;;;;12.52;64.07;100172.31;6119988;23;20426;-86
2023/10/15 01:22:02;;;;;;;4.68;1.48;;;;;;;12.56;63.89;100172.88;6121512;23;20138;-85
2023/10/15 01:24:33;;;;;;;5.47;2.13;;;;;;;12.46;64.18;100172.88;6096286;23;20021;-85
2023/10/15 01:27:08;;;;;;;5.93;2.30;;;;;;;12.43;63.79;100177.66;6120707;23;20026;-85
2023/10/15 01:29:44;;;;;;;4.60;2.22;;;;;;;12.35;63.56;100162.38;6074307;23;20394;-86
2023/10/15 01:32:14;;;;;;;7.68;2.60;;;;;;;12.31;64.10;100161.81;6143421;23;20017;-85
2023/10/15 01:34:45;;;;;;;3.85;2.20;;;;;;;12.32;64.36;100163.47;6095884;23;20065;-86
2023/10/15 01:37:21;;;;;;;4.85;2.17;;;;;;;12.32;64.74;100168.81;6095839;23;20121;-85
2023/10/15 01:39:51;;;;;;;6.68;2.47;;;;;;;12.30;64.50;100159.28;6122211;23;20017;-85
2023/10/15 01:45:13;;;;;;;2.78;1.75;;;;;;;12.30;64.52;100172.59;6097759;23;20017;-85
2023/10/15 01:50:33;;;;;;;7.13;2.83;;;;;;;12.31;64.63;100169.81;6118902;23;20097;-85
2023/10/15 01:53:04;;;;;;;7.13;2.22;;;;;;;12.22;64.65;100175.94;6098237;23;20026;-84
2023/10/15 01:55:35;;;;;;;5.45;2.05;;;;;;;12.23;64.95;100174.13;6144160;23;20030;-85
2023/10/15 01:58:05;;;;;;;7.03;1.93;;;;;;;12.22;65.16;100181.28;6143820;23;20116;-85
2023/10/15 02:03:10;;;;;;;3.90;1.90;;;;;;;12.28;65.23;100161.22;6145046;23;20017;-85
2023/10/15 02:05:42;;;;;;;5.32;2.30;;;;;;;12.27;65.60;100173.72;6120543;23;20026;-85
2023/10/15 02:08:12;;;;;;;7.18;2.10;;;;;;;12.27;65.53;100160.41;6121093;23;20451;-85
2023/10/15 02:10:47;;;;;;;7.80;2.30;;;;;;;12.29;65.86;100166.44;6121062;23;20072;-85
2023/10/15 02:13:16;;;;;;;6.28;2.05;;;;;;;12.35;65.74;100170.34;6094765;23;20386;-85
2023/10/15 02:15:43;;;;;;;5.53;1.90;;;;;;;12.31;65.86;100169.81;6096625;23;20052;-85
2023/10/15 02:18:19;;;;;;;4.20;2.40;;;;;;;12.32;65.71;100165.31;6120065;23;20029;-86
2023/10/15 02:23:20;;;;;;;3.97;2.05;;;;;;;12.30;65.46;100161.94;6119788;23;20022;-85
2023/10/15 02:26:10;;;;;;;7.03;2.33;;;;;;;12.30;65.84;100164.59;6098429;23;20037;-85
2023/10/15 02:28:36;;;;;;;5.00;2.05;;;;;;;12.29;65.96;100166.44;6126507;23;20048;-87
2023/10/15 02:33:38;;;;;;;4.13;2.17;;;;;;;12.26;65.99;100165.84;6147872;23;20029;-85
2023/10/15 02:36:08;;;;;;;6.10;1.92;;;;;;;12.26;65.69;100172.03;6099091;23;20033;-86
2023/10/15 02:38:37;;;;;;;4.13;2.00;;;;;;;12.23;65.65;100177.63;6097872;23;20165;-86
2023/10/15 02:41:05;;;;;;;6.88;1.88;;;;;;;12.20;65.59;100175.22;6098881;23;20030;-86
2023/10/15 02:43:40;;;;;;;6.18;3.13;;;;;;;12.15;65.46;100177.47;6123514;23;20398;-86
2023/10/15 02:46:23;;;;;;;6.15;2.25;;;;;;;12.09;65.72;100170.88;6074769;23;20385;-85
2023/10/15 02:48:55;;;;;;;6.38;1.85;;;;;;;12.08;65.95;100176.31;6121149;23;20076;-85
2023/10/15 02:51:26;;;;;;;8.70;2.55;;;;;;;12.04;65.29;100177.59;6073741;23;20296;-85
2023/10/15 02:54:05;;;;;;;4.18;1.60;;;;;;;12.02;65.79;100177.72;6121887;23;20022;-85
2023/10/15 02:56:32;;;;;;;3.97;2.15;;;;;;;11.99;65.62;100180.66;6124864;23;20582;-86
2023/10/15 02:58:59;;;;;;;8.43;2.33;;;;;;;11.94;65.36;100181.06;6096665;23;20037;-86
2023/10/15 03:01:26;;;;;;;4.43;1.70;;;;;;;11.88;65.33;100178.97;6121895;23;20096;-85
2023/10/15 03:03:55;;;;;;;3.70;1.70;;;;;;;11.82;65.67;100179.44;6121335;23;20075;-85
2023/10/15 03:06:34;;;;;;;4.80;2.15;;;;;;;11.83;65.57;100178.50;6097972;23;20092;-86
2023/10/15 03:09:11;;;;;;;6.60;1.60;;;;;;;11.82;65.90;100168.81;6099099;23;20021;-85
2023/10/15 03:11:38;;;;;;;4.95;2.08;;;;;;;11.87;65.79;100174.59;6100150;23;20052;-84
2023/10/15 03:14:06;;;;;;;6.95;1.88;;;;;;;11.85;65.57;100171.19;6097623;23;20105;-85
2023/10/15 03:16:34;;;;;;;5.93;1.98;;;;;;;11.83;65.40;100175.84;6121856;23;20072;-86
2023/10/15 03:19:17;;;;;;;9.48;2.17;;;;;;;11.83;65.62;100164.31;6121114;23;20021;-88
2023/10/15 03:21:44;;;;;;;7.03;1.50;;;;;;;11.82;65.85;100174.13;6125227;23;20021;-86
2023/10/15 03:24:15;;;;;;;7.60;2.30;;;;;;;11.89;66.16;100174.47;6121942;23;20017;-85
2023/10/15 03:26:47;;;;;;;7.97;1.75;;;;;;;11.90;66.33;100169.00;6098442;23;20040;-85
2023/10/15 03:29:14;;;;;;;5.50;1.90;;;;;;;11.89;66.44;100177.97;6098238;23;20021;-85
2023/10/15 03:31:48;;;;;;;6.88;1.90;;;;;;;11.90;66.62;100176.97;6120510;23;20021;-86
2023/10/15 03:34:22;;;;;;;3.50;1.77;;;;;;;11.89;66.40;100174.47;6142756;23;20729;-85
2023/10/15 03:36:51;;;;;;;5.10;2.28;;;;;;;11.90;66.59;100170.81;6073859;23;20048;-84
2023/10/15 03:39:34;;;;;;;6.20;1.65;;;;;;;11.93;67.04;100171.41;6121557;23;20050;-85
2023/10/15 03:42:10;;;;;;;2.83;1.63;;;;;;;11.91;67.35;100178.69;6123731;23;20044;-85
2023/10/15 03:44:43;;;;;;;6.05;1.90;;;;;;;11.91;67.22;100169.88;6145536;23;20092;-85
2023/10/15 03:47:11;;;;;;;5.43;1.65;;;;;;;11.90;67.33;100166.34;6122236;23;20441;-86
2023/10/15 03:49:38;;;;;;;3.70;1.38;;;;;;;11.89;67.14;100169.16;6145108;23;20033;-85
2023/10/15 03:52:09;;;;;;;8.88;1.73;;;;;;;11.91;67.39;100169.88;6121657;23;20025;-85
2023/10/15 03:54:37;;;;;;;8.10;2.00;;;;;;;11.88;67.63;100163.00;6097232;23;20029;-84
2023/10/15 03:57:06;;;;;;;5.15;2.10;;;;;;;11.87;67.71;100168.44;6096568;23;20025;-85
2023/10/15 03:59:44;;;;;;;1.98;1.38;;;;;;;11.87;68.19;100168.44;6121843;23;20056;-84
2023/10/15 04:02:14;;;;;;;4.97;1.95;;;;;;;11.86;67.93;100164.06;6120524;23;20022;-84
2023/10/15 04:04:46;;;;;;;5.43;1.63;;;;;;;11.82;67.13;100160.81;6145829;23;20121;-85
2023/10/15 04:07:19;;;;;;;4.28;1.83;;;;;;;11.85;67.30;100168.53;6120883;23;20088;-85
2023/10/15 04:09:46;;;;;;;3.80;1.58;;;;;;;11.80;66.73;100156.63;6098475;23;20450;-87
2023/10/15 04:12:13;;;;;;;6.13;1.77;;;;;;;11.82;66.44;100162.66;6121102;23;20704;-85
2023/10/15 04:14:43;;;;;;;4.05;1.73;;;;;;;11.85;66.59;100165.03;6146525;23;20104;-85
2023/10/15 04:17:10;;;;;;;4.10;1.73;;;;;;;11.81;66.89;100161.81;6120807;23;20017;-86
2023/10/15 04:19:37;;;;;;;7.43;1.88;;;;;;;11.79;66.68;100161.09;6120224;23;20108;-86
2023/10/15 04:22:14;;;;;;;5.50;1.60;;;;;;;11.79;67.47;100160.28;6096663;23;20096;-85
2023/10/15 04:24:46;;;;;;;2.58;1.77;;;;;;;11.76;67.23;100169.38;6123847;23;20096;-85
2023/10/15 04:27:18;;;;;;;4.25;1.58;;;;;;;11.79;67.41;100170.91;6145753;23;20079;-86
2023/10/15 04:29:53;;;;;;;4.93;1.75;;;;;;;11.80;67.65;100169.91;6097954;23;20088;-86
2023/10/15 04:33:07;;;;;;;7.95;2.00;;;;;;;11.79;67.52;100170.91;6098287;23;20017;-85
2023/10/15 04:35:18;;;;;;;3.75;1.50;;;;;;;11.77;67.35;100164.88;6138197;23;20516;-86
2023/10/15 04:37:45;;;;;;;4.60;1.83;;;;;;;11.77;67.65;100170.19;6121391;23;20097;-85
2023/10/15 04:40:12;;;;;;;5.20;2.03;;;;;;;11.79;68.12;100170.91;6121038;23;20025;-86
2023/10/15 04:42:51;;;;;;;2.33;1.50;;;;;;;11.77;68.03;100173.69;6099079;23;20018;-85
2023/10/15 04:45:29;;;;;;;7.32;1.70;;;;;;;11.76;67.74;100177.34;6098484;23;20025;-85
2023/10/15 04:48:01;;;;;;;2.58;1.75;;;;;;;11.76;67.81;100174.69;6120098;23;20378;-86
2023/10/15 04:50:37;;;;;;;5.15;1.83;;;;;;;11.72;67.81;100174.09;6096730;23;20021;-86
2023/10/15 04:55:51;;;;;;;8.95;1.98;;;;;;;11.69;68.66;100169.06;6124062;23;20092;-86
2023/10/15 04:58:20;;;;;;;7.50;1.83;;;;;;;11.70;68.62;100170.75;6120737;23;20346;-85
2023/10/15 05:00:48;;;;;;;3.72;1.85;;;;;;;11.70;68.42;100175.22;6120383;23;20036;-85
2023/10/15 05:03:16;;;;;;;8.93;1.70;;;;;;;11.71;68.51;100167.09;6120590;23;20021;-86
2023/10/15 05:05:43;;;;;;;5.25;2.10;;;;;;;11.71;69.12;100168.94;6121969;23;20088;-86
2023/10/15 05:08:11;;;;;;;5.65;1.90;;;;;;;11.72;69.15;100160.78;6120517;23;20036;-86
2023/10/15 05:10:44;;;;;;;5.03;2.20;;;;;;;11.65;70.00;100158.81;6097041;23;20057;-85
2023/10/15 05:13:12;;;;;;;4.95;1.90;;;;;;;11.73;69.56;100164.31;6096815;23;20029;-85
2023/10/15 05:15:42;;;;;;;5.53;1.85;;;;;;;11.69;69.71;100168.22;6096379;23;20392;-86
2023/10/15 05:18:10;;;;;;;5.40;2.00;;;;;;;11.72;69.70;100170.59;6095209;23;20026;-87
2023/10/15 05:20:38;;;;;;;5.15;2.10;;;;;;;11.69;69.81;100169.06;6095979;23;20107;-86
2023/10/15 05:23:04;;;;;;;2.92;1.88;;;;;;;11.69;69.90;100173.53;6096350;23;20517;-85
2023/10/15 05:25:32;;;;;;;4.78;1.67;;;;;;;11.67;69.97;100171.00;6096592;23;20398;-85
2023/10/15 05:27:59;;;;;;;3.72;2.10;;;;;;;11.65;70.13;100172.09;6095523;23;20374;-86
2023/10/15 05:30:26;;;;;;;4.57;2.28;;;;;;;11.62;70.15;100175.03;6120022;23;20041;-85
2023/10/15 05:32:53;;;;;;;7.57;2.72;;;;;;;11.59;70.00;100177.97;6096145;23;20032;-85
2023/10/15 05:35:20;;;;;;;4.15;2.35;;;;;;;11.57;69.93;100187.91;6143260;23;20438;-85
2023/10/15 05:37:47;;;;;;;7.75;2.15;;;;;;;11.56;69.77;100194.22;6120321;23;20080;-85
2023/10/15 05:40:15;;;;;;;2.08;1.85;;;;;;;11.54;69.61;100191.66;6070360;23;20013;-85
2023/10/15 05:42:43;;;;;;;2.75;1.80;;;;;;;11.54;69.58;100196.16;6095092;23;20021;-85
2023/10/15 05:45:10;;;;;;;7.25;2.20;;;;;;;11.54;69.62;100201.47;6119007;23;20025;-85
2023/10/15 05:47:37;;;;;;;4.07;2.08;;;;;;;11.51;69.68;100198.09;6119753;23;20030;-84
2023/10/15 05:50:04;;;;;;;4.05;2.42;;;;;;;11.52;70.04;100210.44;6070511;23;20025;-85
2023/10/15 05:52:32;;;;;;;6.30;2.15;;;;;;;11.55;70.24;100206.66;6095504;23;20652;-85
2023/10/15 05:55:00;;;;;;;5.75;1.80;;;;;;;11.56;70.43;100211.00;6095061;23;20106;-85
2023/10/15 05:57:28;;;;;;;5.15;2.40;;;;;;;11.58;70.66;100213.53;6095751;23;20033;-85
2023/10/15 05:59:56;;;;;;;6.90;1.90;;;;;;;11.59;70.78;100209.91;6095860;23;20517;-85
2023/10/15 06:02:23;;;;;;;4.53;1.92;;;;;;;11.60;71.21;100212.44;6097364;23;20037;-85
2023/10/15 06:04:50;;;;;;;7.30;2.55;;;;;;;11.61;70.53;100214.09;6096379;23;20025;-86
2023/10/15 06:07:17;;;;;;;4.18;2.28;;;;;;;11.60;70.61;100214.22;6096279;23;20029;-85
2023/10/15 06:09:50;;;;;;;4.25;2.42;;;;;;;11.57;70.41;100218.00;6145903;23;20056;-86
2023/10/15 06:12:17;;;;;;;5.05;2.22;;;;;;;11.58;70.84;100221.53;6123308;23;20025;-85
2023/10/15 06:14:43;;;;;;;3.28;2.00;;;;;;;11.61;71.15;100229.22;6097317;23;20036;-85
2023/10/15 06:17:11;;;;;;;3.63;2.13;;;;;;;11.62;70.70;100220.25;6121120;23;20023;-85
2023/10/15 06:19:38;;;;;;;5.25;2.00;;;;;;;11.62;71.00;100214.94;6097890;23;20033;-84
2023/10/15 06:22:05;;;;;;;7.82;2.28;;;;;;;11.64;70.73;100226.28;6073483;23;20025;-86
2023/10/15 06:24:32;;;;;;;4.55;2.33;;;;;;;11.64;70.92;100219.16;6122131;23;20032;-86
2023/10/15 06:27:00;;;;;;;7.82;2.88;;;;;;;11.67;70.99;100226.03;6097636;23;20022;-86
2023/10/15 06:29:27;;;;;;;4.40;3.00;;;;;;;11.64;71.21;100221.81;6098041;23;20025;-86
2023/10/15 06:31:53;;;;;;;7.93;3.10;;;;;;;11.65;70.76;100228.84;6097590;23;20048;-86
2023/10/15 06:34:22;;;;;;;8.85;4.10;;;;;;;11.65;70.81;100233.28;6098030;23;20029;-86
2023/10/15 06:36:50;;;;;;;27.75;13.25;;;;;;;11.62;70.79;100222.91;6096463;23;20092;-85
2023/10/15 06:39:17;;;;;;;12.50;4.55;;;;;;;11.64;70.91;100234.28;6098089;23;20026;-85
2023/10/15 06:41:44;;;;;;;6.00;3.28;;;;;;;11.59;71.14;100232.00;6098979;23;20342;-84
2023/10/15 06:44:10;;;;;;;5.10;2.85;;;;;;;11.61;71.24;100229.22;6074021;23;20028;-85
2023/10/15 06:46:38;;;;;;;6.50;3.30;;;;;;;11.60;70.96;100236.38;6122717;23;20029;-85
2023/10/15 06:49:07;;;;;;;5.85;2.75;;;;;;;11.64;70.75;100235.13;6098972;23;20049;-85
2023/10/15 06:51:34;;;;;;;5.68;2.90;;;;;;;11.67;71.12;100239.31;6123389;23;20025;-85
2023/10/15 06:54:01;;;;;;;9.02;3.53;;;;;;;11.67;71.00;100239.31;6122131;23;20519;-85
2023/10/15 06:56:28;;;;;;;8.27;2.83;;;;;;;11.68;71.30;100249.00;6074495;23;20091;-86
2023/10/15 06:58:55;;;;;;;5.85;2.78;;;;;;;11.66;71.52;100245.63;6072705;23;20344;-85
2023/10/15 07:01:22;;;;;;;8.55;2.50;;;;;;;11.67;71.30;100249.97;6073126;23;20029;-85
2023/10/15 07:03:48;;;;;;;6.82;3.60;;;;;;;11.68;71.53;100249.84;6098059;23;20025;-85
2023/10/15 07:06:19;;;;;;;7.35;3.97;;;;;;;11.71;71.49;100251.41;6097347;23;20025;-85
2023/10/15 07:08:46;;;;;;;6.00;3.65;;;;;;;11.71;71.99;100254.06;6097926;23;20092;-86
2023/10/15 07:11:14;;;;;;;11.02;3.65;;;;;;;11.72;72.09;100259.22;6122697;23;20341;-86
2023/10/15 07:13:41;;;;;;;9.75;5.00;;;;;;;11.73;72.33;100255.59;6075041;23;20087;-86
2023/10/15 07:16:10;;;;;;;8.60;4.15;;;;;;;11.74;72.54;100265.25;6051079;23;20021;-84
2023/10/15 07:18:37;;;;;;;10.23;3.42;;;;;;;11.76;72.42;100261.66;6121860;23;20812;-85
2023/10/15 07:21:04;;;;;;;7.63;4.78;;;;;;;11.72;72.21;100259.22;6074654;23;20026;-85
2023/10/15 07:23:31;;;;;;;10.60;3.63;;;;;;;11.73;72.21;100260.09;6121701;23;20373;-85
2023/10/15 07:25:58;;;;;;;9.40;3.85;;;;;;;11.71;71.99;100256.72;6097494;23;20103;-86
2023/10/15 07:28:25;;;;;;;9.05;3.00;;;;;;;11.69;72.59;100259.50;6121492;23;20389;-85
2023/10/15 07:30:52;;;;;;;6.10;3.08;;;;;;;11.70;72.49;100261.19;6097156;23;20351;-85
2023/10/15 07:33:20;;;;;;;5.70;3.00;;;;;;;11.73;72.55;100268.91;6098208;23;20030;-85
2023/10/15 07:35:48;;;;;;;5.00;2.20;;;;;;;11.73;72.56;100265.41;6097221;23;20133;-86
2023/10/15 07:38:14;;;;;;;6.65;2.40;;;;;;;11.77;72.13;100258.00;6121310;23;20650;-87
2023/10/15 07:40:41;;;;;;;6.55;2.63;;;;;;;11.82;72.40;100255.78;6123683;23;20021;-85
2023/10/15 07:43:08;;;;;;;5.47;2.42;;;;;;;11.93;72.55;100263.69;6072050;23;20013;-86
2023/10/15 07:45:37;;;;;;;4.57;2.15;;;;;;;11.99;72.42;100260.50;6121478;23;20032;-87
2023/10/15 07:48:04;;;;;;;11.65;2.70;;;;;;;12.05;71.67;100256.47;6121270;23;20975;-87
2023/10/15 07:50:34;;;;;;;5.25;2.15;;;;;;;12.10;71.32;100262.22;6120547;23;20029;-85
2023/10/15 07:53:02;;;;;;;5.22;2.30;;;;;;;12.14;71.38;100259.16;6097115;23;20018;-85
2023/10/15 07:55:30;;;;;;;5.65;2.33;;;;;;;12.20;71.28;100256.94;6119628;23;20108;-85
2023/10/15 07:57:57;;;;;;;5.88;2.45;;;;;;;12.19;71.05;100250.78;6142113;23;20480;-86
2023/10/15 08:00:26;;;;;;;6.50;2.25;;;;;;;12.25;71.12;100250.22;6116819;23;20025;-85
2023/10/15 08:02:57;;;;;;;4.88;2.05;;;;;;;12.27;70.63;100258.91;6093878;23;20021;-86
2023/10/15 08:05:34;;;;;;;4.40;2.20;;;;;;;12.29;70.43;100264.13;6092039;23;20021;-86
2023/10/15 08:08:03;;;;;;;3.83;1.90;;;;;;;12.32;70.38;100253.19;6092875;23;20025;-86
2023/10/15 08:10:32;;;;;;;7.15;2.28;;;;;;;12.35;70.32;100261.72;6117477;23;20067;-85
2023/10/15 08:13:00;;;;;;;5.13;1.65;;;;;;;12.36;70.05;100263.44;6091306;23;20022;-86
2023/10/15 08:15:27;;;;;;;7.78;2.00;;;;;;;12.44;70.08;100269.88;6114532;23;20454;-85
2023/10/15 08:17:56;;;;;;;8.18;2.22;;;;;;;12.47;70.02;100272.28;6140773;23;20056;-85
2023/10/15 08:20:24;;;;;;;7.35;2.13;;;;;;;12.49;70.03;100273.84;6092033;23;20076;-86
2023/10/15 08:22:50;;;;;;;10.60;3.50;;;;;;;12.54;69.49;100276.94;6090776;23;20593;-85
2023/10/15 08:25:21;;;;;;;6.93;2.10;;;;;;;12.60;69.52;100276.38;6066218;23;20640;-86
2023/10/15 08:27:48;;;;;;;6.28;1.77;;;;;;;12.60;69.28;100252.38;6117490;23;20100;-85
2023/10/15 08:30:17;;;;;;;6.55;2.88;;;;;;;12.62;69.12;100270.03;6115345;23;20029;-86
2023/10/15 08:32:45;;;;;;;5.72;2.05;;;;;;;12.61;68.96;100266.53;6090921;23;20033;-86
2023/10/15 08:35:13;;;;;;;6.10;1.73;;;;;;;12.62;68.79;100262.91;6089454;23;20030;-86
2023/10/15 08:37:42;;;;;;;7.82;1.90;;;;;;;12.62;68.45;100275.38;6115226;23;20104;-85
2023/10/15 08:40:15;;;;;;;9.57;1.88;;;;;;;12.60;68.26;100273.69;6091627;23;20036;-85
2023/10/15 08:42:55;;;;;;;6.22;1.95;;;;;;;12.57;68.03;100273.97;6069812;23;20017;-83
2023/10/15 08:45:23;;;;;;;10.13;2.10;;;;;;;12.56;67.91;100274.09;6119157;23;20678;-84
2023/10/15 08:47:50;;;;;;;5.13;1.60;;;;;;;12.55;67.90;100285.75;6096856;23;20477;-85
2023/10/15 08:50:20;;;;;;;4.57;1.88;;;;;;;12.49;67.89;100288.94;6094210;23;20025;-85
2023/10/15 08:52:49;;;;;;;4.97;1.63;;;;;;;12.49;67.81;100279.16;6117137;23;20014;-85
2023/10/15 08:55:17;;;;;;;9.85;2.63;;;;;;;12.52;67.79;100284.22;6070039;23;20104;-85
2023/10/15 08:57:44;;;;;;;10.23;1.70;;;;;;;12.55;67.97;100283.94;6093968;23;20390;-85
2023/10/15 09:00:25;;;;;;;7.60;2.00;;;;;;;12.59;68.39;100280.03;6092651;23;20052;-85
2023/10/15 09:03:02;;;;;;;4.60;1.80;;;;;;;12.66;68.13;100279.44;6094698;23;20055;-86
2023/10/15 09:05:30;;;;;;;4.47;1.58;;;;;;;12.71;68.12;100285.22;6068224;23;20021;-84
2023/10/15 09:08:06;;;;;;;7.60;1.85;;;;;;;12.73;67.93;100281.44;6068043;23;20665;-84
2023/10/15 09:10:41;;;;;;;4.72;1.48;;;;;;;12.72;67.06;100277.09;6069783;23;20021;-85
2023/10/15 09:13:14;;;;;;;8.35;1.90;;;;;;;12.76;67.42;100283.81;6068497;23;20026;-86
2023/10/15 09:15:43;;;;;;;7.43;1.60;;;;;;;12.75;67.68;100282.13;6116838;23;20033;-84
2023/10/15 09:18:16;;;;;;;3.85;1.50;;;;;;;12.76;66.74;100286.47;6092124;23;20347;-85
2023/10/15 09:20:46;;;;;;;5.93;1.50;;;;;;;12.74;66.79;100290.25;6093746;23;20485;-85
2023/10/15 09:23:12;;;;;;;7.03;1.83;;;;;;;12.77;66.93;100292.63;6091197;23;20025;-85
2023/10/15 09:25:41;;;;;;;3.70;1.70;;;;;;;12.75;66.19;100291.97;6091617;23;20560;-86
2023/10/15 09:28:08;;;;;;;6.13;1.80;;;;;;;12.72;66.15;100287.75;6067126;23;20017;-86
2023/10/15 09:30:37;;;;;;;5.93;1.85;;;;;;;12.72;66.16;100286.88;6092008;23;20580;-86
2023/10/15 09:33:12;;;;;;;7.20;1.70;;;;;;;12.69;66.21;100289.81;6043242;23;20032;-86
2023/10/15 09:35:39;;;;;;;6.95;1.70;;;;;;;12.71;66.39;100286.03;6091834;23;20485;-86
2023/10/15 09:38:10;;;;;;;4.43;1.33;;;;;;;12.74;66.36;100296.41;6113619;23;20039;-85
2023/10/15 09:40:37;;;;;;;6.93;1.67;;;;;;;12.73;65.73;100288.59;6091741;23;20049;-86
2023/10/15 09:43:04;;;;;;;9.18;1.80;;;;;;;12.77;65.45;100293.50;6066797;23;20022;-86
2023/10/15 09:45:32;;;;;;;4.78;1.48;;;;;;;12.75;65.08;100290.13;6089209;23;20670;-86
2023/10/15 09:47:59;;;;;;;5.95;1.65;;;;;;;12.79;65.76;100288.00;6089617;23;20027;-84
2023/10/15 09:50:38;;;;;;;5.15;1.40;;;;;;;12.86;65.72;100288.31;6087341;23;20025;-86
2023/10/15 09:53:11;;;;;;;4.18;1.23;;;;;;;12.88;66.16;100281.88;6036663;23;20049;-87
2023/10/15 09:55:40;;;;;;;11.50;1.70;;;;;;;12.97;65.66;100282.84;6067348;23;20620;-85
2023/10/15 09:58:10;;;;;;;6.82;1.80;;;;;;;13.01;65.11;100262.91;6064453;23;20470;-84
2023/10/15 10:04:04;;;;;;;4.40;1.40;;;;;;;13.12;64.14;100261.94;6050809;23;19917;-86
2023/10/15 10:06:53;;;;;;;4.43;1.33;;;;;;;13.19;64.50;100273.72;6028801;23;20092;-86
2023/10/15 10:09:59;;;;;;;4.55;1.40;;;;;;;13.10;62.87;100287.88;6090846;23;20029;-86
2023/10/15 10:12:53;;;;;;;5.45;1.80;;;;;;;13.00;65.56;100287.88;6065947;23;20029;-84
2023/10/15 10:15:38;;;;;;;11.85;2.03;;;;;;;12.85;66.11;100294.59;6090924;23;20025;-85
2023/10/15 10:18:06;;;;;;;9.30;1.70;;;;;;;12.73;66.80;100301.91;6090457;23;20022;-86
2023/10/15 10:20:38;;;;;;;10.15;1.98;;;;;;;12.66;68.63;100298.09;6115240;23;20446;-86
2023/10/15 10:23:06;;;;;;;8.88;1.80;;;;;;;12.60;68.85;100299.50;6091025;23;20088;-86
2023/10/15 10:25:42;;;;;;;3.13;1.02;;;;;;;12.54;72.51;100302.69;6140569;23;20029;-85
2023/10/15 10:28:19;;;;;;;4.47;1.45;;;;;;;12.52;71.61;100304.69;6091309;23;20049;-87
2023/10/15 10:30:53;;;;;;;10.95;2.08;;;;;;;12.48;73.86;100295.25;6091624;23;20080;-85
2023/10/15 10:33:45;;;;;;;8.70;3.20;;;;;;;12.47;72.98;100304.25;6139653;23;20667;-86
2023/10/15 10:36:14;;;;;;;5.95;2.10;;;;;;;12.60;70.46;100291.50;6091653;23;20101;-87
2023/10/15 10:38:43;;;;;;;11.00;5.35;;;;;;;12.66;71.21;100288.28;6111933;23;20032;-85
2023/10/15 10:41:15;;;;;;;6.80;2.30;;;;;;;12.70;72.34;100283.53;6115808;23;20481;-86
2023/10/15 10:43:53;;;;;;;6.78;2.00;;;;;;;12.78;71.56;100275.69;6091075;23;20491;-85
2023/10/15 10:46:58;;;;;;;2.88;1.05;;;;;;;12.77;72.75;100271.31;6063580;23;20111;-87
2023/10/15 10:49:35;;;;;;;5.63;1.85;;;;;;;12.89;71.76;100272.03;6049592;23;20027;-85
2023/10/15 10:52:17;;;;;;;3.53;1.60;;;;;;;13.00;71.90;100283.41;6006089;23;20021;-87
2023/10/15 10:54:46;;;;;;;6.65;1.10;;;;;;;12.99;71.06;100272.88;6100187;23;20017;-86
2023/10/15 10:57:18;;;;;;;7.05;1.50;;;;;;;12.93;69.24;100271.63;6055871;23;20028;-85
2023/10/15 10:59:46;;;;;;;4.45;1.08;;;;;;;12.95;70.38;100264.34;6090500;23;20722;-85
2023/10/15 11:02:14;;;;;;;1.98;0.80;;;;;;;12.97;65.83;100280.16;6079224;23;20052;-86
2023/10/15 11:04:42;;;;;;;2.63;0.73;;;;;;;12.86;64.98;100281.16;6115321;23;20030;-86
2023/10/15 11:07:14;;;;;;;3.83;0.75;;;;;;;12.86;63.60;100275.81;6089086;23;20355;-86
2023/10/15 11:09:42;;;;;;;5.20;1.00;;;;;;;12.85;63.85;100289.28;6020954;23;20402;-86
2023/10/15 11:12:11;;;;;;;2.85;1.23;;;;;;;12.88;64.33;100286.34;6092390;23;20057;-86
2023/10/15 11:14:39;;;;;;;3.63;1.20;;;;;;;12.80;63.41;100289.72;6093195;23;20096;-87
2023/10/15 11:17:10;;;;;;;4.07;0.82;;;;;;;12.82;63.41;100288.59;6092207;23;20028;-86
2023/10/15 11:19:37;;;;;;;2.97;0.93;;;;;;;12.88;63.76;100278.38;6068285;23;20101;-86
2023/10/15 11:22:05;;;;;;;3.90;0.90;;;;;;;12.95;62.72;100279.47;6068295;23;20031;-86
2023/10/15 11:24:32;;;;;;;2.15;1.15;;;;;;;12.98;61.75;100274.72;6140044;23;20453;-85
2023/10/15 11:27:00;;;;;;;3.35;1.33;;;;;;;12.99;62.95;100264.88;6056065;23;20084;-86
2023/10/15 11:29:28;;;;;;;4.95;1.00;;;;;;;12.97;62.83;100267.69;6093061;23;20022;-86
2023/10/15 11:31:59;;;;;;;2.00;0.65;;;;;;;12.86;60.93;100264.31;6070977;23;20492;-85
2023/10/15 11:34:28;;;;;;;2.85;1.15;;;;;;;12.77;61.57;100274.84;6093224;23;20029;-85
2023/10/15 11:36:56;;;;;;;1.55;0.65;;;;;;;12.76;62.80;100281.13;6091985;23;20072;-86
2023/10/15 11:39:38;;;;;;;4.88;0.75;;;;;;;12.57;60.05;100299.78;6068598;23;20037;-86
2023/10/15 11:42:10;;;;;;;3.25;0.93;;;;;;;12.53;61.11;100295.69;6091048;23;20021;-86
2023/10/15 11:44:38;;;;;;;2.70;0.90;;;;;;;12.42;60.43;100298.50;6090800;23;20079;-86
2023/10/15 11:47:12;;;;;;;3.38;0.80;;;;;;;12.39;60.78;100307.59;6092905;23;20048;-87
2023/10/15 11:49:42;;;;;;;3.28;1.00;;;;;;;12.45;62.26;100314.19;6141578;23;20654;-88
2023/10/15 11:52:14;;;;;;;2.72;0.70;;;;;;;12.50;61.91;100312.78;6092852;23;20084;-87
2023/10/15 11:54:49;;;;;;;2.28;0.95;;;;;;;12.49;62.95;100292.47;6092609;23;20469;-87
2023/10/15 11:57:24;;;;;;;3.80;1.40;;;;;;;12.57;62.94;100295.28;6043768;23;20018;-86
2023/10/15 11:59:52;;;;;;;1.50;0.90;;;;;;;12.65;63.10;100293.75;6142848;23;20025;-86
2023/10/15 12:02:24;;;;;;;2.58;0.73;;;;;;;12.66;62.28;100298.94;6070166;23;20107;-88
2023/10/15 12:04:51;;;;;;;1.85;1.00;;;;;;;12.62;62.79;100283.34;6092174;23;20032;-86